sensor_id;sensor_type;location;lat;lon;timestamp;P1;durP1;ratioP1;P2;durP2;ratioP2
62927;SDS011;51070;52.236;-0.892;2022-09-27T00:00:20;4.20;;;1.10;;
62927;SDS011;51070;52.236;-0.892;2022-09-27T00:02:46;3.50;;;1.30;;
62927;SDS011;51070;52.236;-0.892;2022-09-27T00:05:12;3.40;;;1.00;;
62927;SDS011;51070;52.236;-0.892;2022-09-27T00:07:37;5.30;;;0.70;;
62927;SDS011;51070;52.236;-0.892;2022-09-27T00:10:03;2.60;;;0.80;;
62927;SDS011;51070;52.236;-0.892;2022-09-27T00:12:29;3.40;;;1.10;;
62927;SDS011;51070;52.236;-0.892;2022-09-27T00:14:55;3.80;;;1.00;;
62927;SDS011;51070;52.236;-0.892;2022-09-27T00:17:21;2.50;;;0.60;;
62927;SDS011;51070;52.236;-0.892;2022-09-27T00:19:46;5.30;;;1.00;;
62927;SDS011;51070;52.236;-0.892;2022-09-27T00:22:12;2.70;;;0.90;;
62927;SDS011;51070;52.236;-0.892;2022-09-27T00:24:37;1.00;;;0.70;;
62927;SDS011;51070;52.236;-0.892;2022-09-27T00:27:02;3.00;;;1.10;;
62927;SDS011;51070;52.236;-0.892;2022-09-27T00:29:28;2.70;;;0.70;;
62927;SDS011;51070;52.236;-0.892;2022-09-27T00:31:53;4.80;;;1.30;;
62927;SDS011;51070;52.236;-0.892;2022-09-27T00:34:20;2.20;;;1.00;;
62927;SDS011;51070;52.236;-0.892;2022-09-27T00:36:49;2.80;;;0.70;;
62927;SDS011;51070;52.236;-0.892;2022-09-27T00:39:15;6.70;;;0.90;;
62927;SDS011;51070;52.236;-0.892;2022-09-27T00:41:41;4.10;;;0.80;;
62927;SDS011;51070;52.236;-0.892;2022-09-27T00:49:56;1.70;;;0.70;;
62927;SDS011;51070;52.236;-0.892;2022-09-27T00:55:31;3.40;;;0.80;;
62927;SDS011;51070;52.236;-0.892;2022-09-27T00:58:02;2.20;;;0.70;;
62927;SDS011;51070;52.236;-0.892;2022-09-27T01:00:29;1.70;;;0.80;;
62927;SDS011;51070;52.236;-0.892;2022-09-27T01:02:55;3.20;;;1.00;;
62927;SDS011;51070;52.236;-0.892;2022-09-27T01:05:22;2.50;;;0.80;;
62927;SDS011;51070;52.236;-0.892;2022-09-27T01:07:50;3.40;;;0.70;;
62927;SDS011;51070;52.236;-0.892;2022-09-27T01:10:15;4.30;;;0.70;;
62927;SDS011;51070;52.236;-0.892;2022-09-27T01:15:49;5.70;;;1.10;;
62927;SDS011;51070;52.236;-0.892;2022-09-27T01:18:33;2.00;;;0.90;;
62927;SDS011;51070;52.236;-0.892;2022-09-27T01:32:05;7.40;;;1.70;;
62927;SDS011;51070;52.236;-0.892;2022-09-27T01:34:53;7.40;;;1.30;;
62927;SDS011;51070;52.236;-0.892;2022-09-27T01:37:40;5.80;;;1.30;;
62927;SDS011;51070;52.236;-0.892;2022-09-27T01:42:49;4.30;;;1.00;;
62927;SDS011;51070;52.236;-0.892;2022-09-27T01:48:24;2.50;;;1.00;;
62927;SDS011;51070;52.236;-0.892;2022-09-27T01:50:51;4.70;;;1.20;;
62927;SDS011;51070;52.236;-0.892;2022-09-27T01:53:31;4.50;;;1.20;;
62927;SDS011;51070;52.236;-0.892;2022-09-27T01:56:01;3.20;;;1.00;;
62927;SDS011;51070;52.236;-0.892;2022-09-27T02:01:07;11.50;;;1.70;;
62927;SDS011;51070;52.236;-0.892;2022-09-27T02:03:36;3.40;;;1.50;;
62927;SDS011;51070;52.236;-0.892;2022-09-27T02:06:11;3.90;;;1.00;;
62927;SDS011;51070;52.236;-0.892;2022-09-27T02:11:24;2.70;;;1.00;;
62927;SDS011;51070;52.236;-0.892;2022-09-27T02:13:53;3.70;;;1.20;;
62927;SDS011;51070;52.236;-0.892;2022-09-27T02:21:48;6.90;;;1.20;;
62927;SDS011;51070;52.236;-0.892;2022-09-27T02:24:26;6.50;;;1.40;;
62927;SDS011;51070;52.236;-0.892;2022-09-27T02:27:05;4.00;;;1.70;;
62927;SDS011;51070;52.236;-0.892;2022-09-27T02:29:38;5.20;;;1.10;;
62927;SDS011;51070;52.236;-0.892;2022-09-27T02:32:10;7.70;;;2.20;;
62927;SDS011;51070;52.236;-0.892;2022-09-27T02:34:36;5.50;;;2.20;;
62927;SDS011;51070;52.236;-0.892;2022-09-27T02:37:05;7.10;;;1.10;;
62927;SDS011;51070;52.236;-0.892;2022-09-27T02:39:30;6.70;;;1.10;;
62927;SDS011;51070;52.236;-0.892;2022-09-27T02:41:55;3.80;;;1.30;;
62927;SDS011;51070;52.236;-0.892;2022-09-27T02:44:22;5.50;;;1.00;;
62927;SDS011;51070;52.236;-0.892;2022-09-27T02:47:03;4.70;;;0.90;;
62927;SDS011;51070;52.236;-0.892;2022-09-27T03:00:04;5.50;;;1.50;;
62927;SDS011;51070;52.236;-0.892;2022-09-27T03:02:50;6.70;;;2.40;;
62927;SDS011;51070;52.236;-0.892;2022-09-27T03:05:31;1.80;;;0.80;;
62927;SDS011;51070;52.236;-0.892;2022-09-27T03:08:02;5.10;;;1.40;;
62927;SDS011;51070;52.236;-0.892;2022-09-27T03:10:28;5.90;;;1.40;;
62927;SDS011;51070;52.236;-0.892;2022-09-27T03:12:55;2.80;;;1.10;;
62927;SDS011;51070;52.236;-0.892;2022-09-27T03:15:22;6.60;;;1.30;;
62927;SDS011;51070;52.236;-0.892;2022-09-27T03:17:48;4.70;;;0.80;;
62927;SDS011;51070;52.236;-0.892;2022-09-27T03:20:13;4.30;;;1.10;;
62927;SDS011;51070;52.236;-0.892;2022-09-27T03:22:39;4.20;;;1.40;;
62927;SDS011;51070;52.236;-0.892;2022-09-27T03:25:05;5.00;;;1.30;;
62927;SDS011;51070;52.236;-0.892;2022-09-27T03:27:31;4.90;;;1.30;;
62927;SDS011;51070;52.236;-0.892;2022-09-27T03:29:57;4.00;;;1.30;;
62927;SDS011;51070;52.236;-0.892;2022-09-27T03:32:24;7.60;;;1.40;;
62927;SDS011;51070;52.236;-0.892;2022-09-27T03:34:50;3.10;;;1.10;;
62927;SDS011;51070;52.236;-0.892;2022-09-27T03:37:15;4.70;;;1.00;;
62927;SDS011;51070;52.236;-0.892;2022-09-27T03:39:41;7.10;;;1.20;;
62927;SDS011;51070;52.236;-0.892;2022-09-27T03:42:06;6.00;;;1.10;;
62927;SDS011;51070;52.236;-0.892;2022-09-27T03:44:32;5.70;;;1.40;;
62927;SDS011;51070;52.236;-0.892;2022-09-27T03:46:57;2.70;;;1.00;;
62927;SDS011;51070;52.236;-0.892;2022-09-27T03:49:23;4.40;;;1.10;;
62927;SDS011;51070;52.236;-0.892;2022-09-27T03:51:49;4.00;;;1.20;;
62927;SDS011;51070;52.236;-0.892;2022-09-27T03:54:14;6.10;;;1.30;;
62927;SDS011;51070;52.236;-0.892;2022-09-27T03:56:39;3.50;;;1.20;;
62927;SDS011;51070;52.236;-0.892;2022-09-27T03:59:05;5.10;;;1.00;;
62927;SDS011;51070;52.236;-0.892;2022-09-27T04:01:30;5.50;;;1.50;;
62927;SDS011;51070;52.236;-0.892;2022-09-27T04:03:56;4.10;;;1.10;;
62927;SDS011;51070;52.236;-0.892;2022-09-27T04:06:21;4.10;;;1.00;;
62927;SDS011;51070;52.236;-0.892;2022-09-27T04:08:47;3.50;;;1.00;;
62927;SDS011;51070;52.236;-0.892;2022-09-27T04:11:13;7.20;;;1.10;;
62927;SDS011;51070;52.236;-0.892;2022-09-27T04:13:39;4.90;;;1.50;;
62927;SDS011;51070;52.236;-0.892;2022-09-27T04:16:05;4.70;;;1.00;;
62927;SDS011;51070;52.236;-0.892;2022-09-27T04:18:32;7.80;;;1.20;;
62927;SDS011;51070;52.236;-0.892;2022-09-27T04:20:57;9.20;;;1.10;;
62927;SDS011;51070;52.236;-0.892;2022-09-27T04:23:23;4.90;;;1.10;;
62927;SDS011;51070;52.236;-0.892;2022-09-27T04:25:48;5.70;;;1.30;;
62927;SDS011;51070;52.236;-0.892;2022-09-27T04:28:14;5.80;;;1.30;;
62927;SDS011;51070;52.236;-0.892;2022-09-27T04:30:40;3.20;;;0.90;;
62927;SDS011;51070;52.236;-0.892;2022-09-27T04:33:05;2.50;;;0.50;;
62927;SDS011;51070;52.236;-0.892;2022-09-27T04:35:31;5.80;;;1.40;;
62927;SDS011;51070;52.236;-0.892;2022-09-27T04:38:14;5.10;;;0.90;;
62927;SDS011;51070;52.236;-0.892;2022-09-27T04:40:40;5.40;;;1.30;;
62927;SDS011;51070;52.236;-0.892;2022-09-27T04:43:06;4.20;;;1.50;;
62927;SDS011;51070;52.236;-0.892;2022-09-27T04:45:31;4.40;;;1.10;;
62927;SDS011;51070;52.236;-0.892;2022-09-27T04:47:57;3.30;;;0.80;;
62927;SDS011;51070;52.236;-0.892;2022-09-27T04:50:23;5.80;;;1.00;;
62927;SDS011;51070;52.236;-0.892;2022-09-27T04:52:49;2.70;;;0.70;;
62927;SDS011;51070;52.236;-0.892;2022-09-27T04:55:16;4.90;;;1.40;;
62927;SDS011;51070;52.236;-0.892;2022-09-27T04:57:42;3.60;;;0.70;;
62927;SDS011;51070;52.236;-0.892;2022-09-27T05:00:08;1.80;;;0.50;;
62927;SDS011;51070;52.236;-0.892;2022-09-27T05:02:34;8.00;;;1.10;;
62927;SDS011;51070;52.236;-0.892;2022-09-27T05:04:59;2.80;;;0.80;;
62927;SDS011;51070;52.236;-0.892;2022-09-27T05:07:25;1.70;;;0.50;;
62927;SDS011;51070;52.236;-0.892;2022-09-27T05:09:51;2.70;;;0.60;;
62927;SDS011;51070;52.236;-0.892;2022-09-27T05:12:17;3.50;;;1.10;;
62927;SDS011;51070;52.236;-0.892;2022-09-27T05:14:43;4.50;;;1.30;;
62927;SDS011;51070;52.236;-0.892;2022-09-27T05:17:09;5.20;;;0.90;;
62927;SDS011;51070;52.236;-0.892;2022-09-27T05:19:34;5.50;;;1.00;;
62927;SDS011;51070;52.236;-0.892;2022-09-27T05:22:00;5.00;;;1.10;;
62927;SDS011;51070;52.236;-0.892;2022-09-27T05:24:25;2.00;;;1.40;;
62927;SDS011;51070;52.236;-0.892;2022-09-27T05:26:56;1.30;;;0.50;;
62927;SDS011;51070;52.236;-0.892;2022-09-27T05:29:23;4.60;;;1.50;;
62927;SDS011;51070;52.236;-0.892;2022-09-27T05:31:48;1.90;;;0.60;;
62927;SDS011;51070;52.236;-0.892;2022-09-27T05:34:15;2.40;;;0.60;;
62927;SDS011;51070;52.236;-0.892;2022-09-27T05:36:42;2.30;;;0.80;;
62927;SDS011;51070;52.236;-0.892;2022-09-27T05:39:07;3.60;;;0.90;;
62927;SDS011;51070;52.236;-0.892;2022-09-27T05:41:33;1.60;;;0.60;;
62927;SDS011;51070;52.236;-0.892;2022-09-27T05:43:58;4.10;;;0.80;;
62927;SDS011;51070;52.236;-0.892;2022-09-27T05:46:24;2.00;;;0.80;;
62927;SDS011;51070;52.236;-0.892;2022-09-27T05:48:49;3.90;;;1.10;;
62927;SDS011;51070;52.236;-0.892;2022-09-27T05:51:15;2.00;;;0.80;;
62927;SDS011;51070;52.236;-0.892;2022-09-27T05:53:41;2.80;;;0.90;;
62927;SDS011;51070;52.236;-0.892;2022-09-27T05:56:06;5.10;;;1.30;;
62927;SDS011;51070;52.236;-0.892;2022-09-27T05:58:31;4.10;;;0.90;;
62927;SDS011;51070;52.236;-0.892;2022-09-27T06:00:58;3.80;;;1.00;;
62927;SDS011;51070;52.236;-0.892;2022-09-27T06:03:24;3.30;;;0.90;;
62927;SDS011;51070;52.236;-0.892;2022-09-27T06:05:50;6.30;;;0.80;;
62927;SDS011;51070;52.236;-0.892;2022-09-27T06:08:15;2.60;;;1.00;;
62927;SDS011;51070;52.236;-0.892;2022-09-27T06:10:40;1.10;;;0.60;;
62927;SDS011;51070;52.236;-0.892;2022-09-27T06:13:10;1.80;;;1.10;;
62927;SDS011;51070;52.236;-0.892;2022-09-27T06:15:38;5.60;;;1.00;;
62927;SDS011;51070;52.236;-0.892;2022-09-27T06:18:08;5.30;;;0.80;;
62927;SDS011;51070;52.236;-0.892;2022-09-27T06:20:38;2.10;;;0.90;;
62927;SDS011;51070;52.236;-0.892;2022-09-27T06:23:09;4.40;;;1.50;;
62927;SDS011;51070;52.236;-0.892;2022-09-27T06:25:36;3.70;;;0.90;;
62927;SDS011;51070;52.236;-0.892;2022-09-27T06:28:03;4.60;;;0.80;;
62927;SDS011;51070;52.236;-0.892;2022-09-27T06:30:29;2.50;;;0.90;;
62927;SDS011;51070;52.236;-0.892;2022-09-27T06:32:59;2.20;;;0.70;;
62927;SDS011;51070;52.236;-0.892;2022-09-27T06:35:26;2.70;;;1.00;;
62927;SDS011;51070;52.236;-0.892;2022-09-27T06:37:53;3.90;;;0.80;;
62927;SDS011;51070;52.236;-0.892;2022-09-27T06:40:19;3.00;;;1.20;;
62927;SDS011;51070;52.236;-0.892;2022-09-27T06:42:46;7.10;;;1.50;;
62927;SDS011;51070;52.236;-0.892;2022-09-27T06:45:13;3.60;;;0.60;;
62927;SDS011;51070;52.236;-0.892;2022-09-27T06:47:38;4.70;;;0.60;;
62927;SDS011;51070;52.236;-0.892;2022-09-27T06:50:04;2.90;;;0.80;;
62927;SDS011;51070;52.236;-0.892;2022-09-27T06:52:31;2.60;;;0.80;;
62927;SDS011;51070;52.236;-0.892;2022-09-27T06:54:57;4.60;;;0.80;;
62927;SDS011;51070;52.236;-0.892;2022-09-27T06:57:23;4.10;;;0.80;;
62927;SDS011;51070;52.236;-0.892;2022-09-27T07:00:10;6.10;;;1.20;;
62927;SDS011;51070;52.236;-0.892;2022-09-27T07:02:50;2.50;;;0.90;;
62927;SDS011;51070;52.236;-0.892;2022-09-27T07:05:17;3.80;;;0.90;;
62927;SDS011;51070;52.236;-0.892;2022-09-27T07:07:43;2.80;;;1.00;;
62927;SDS011;51070;52.236;-0.892;2022-09-27T07:10:09;4.70;;;0.90;;
62927;SDS011;51070;52.236;-0.892;2022-09-27T07:12:35;4.60;;;1.40;;
62927;SDS011;51070;52.236;-0.892;2022-09-27T07:15:01;6.20;;;1.50;;
62927;SDS011;51070;52.236;-0.892;2022-09-27T07:17:27;5.60;;;1.00;;
62927;SDS011;51070;52.236;-0.892;2022-09-27T07:19:53;4.60;;;1.80;;
62927;SDS011;51070;52.236;-0.892;2022-09-27T07:22:19;8.50;;;1.90;;
62927;SDS011;51070;52.236;-0.892;2022-09-27T07:24:45;9.30;;;2.60;;
62927;SDS011;51070;52.236;-0.892;2022-09-27T07:27:10;12.80;;;2.90;;
62927;SDS011;51070;52.236;-0.892;2022-09-27T07:29:36;10.30;;;2.60;;
62927;SDS011;51070;52.236;-0.892;2022-09-27T07:32:02;5.40;;;2.20;;
62927;SDS011;51070;52.236;-0.892;2022-09-27T07:34:28;12.60;;;3.50;;
62927;SDS011;51070;52.236;-0.892;2022-09-27T07:36:57;12.00;;;2.40;;
62927;SDS011;51070;52.236;-0.892;2022-09-27T07:39:23;8.00;;;2.30;;
62927;SDS011;51070;52.236;-0.892;2022-09-27T07:41:49;9.60;;;2.80;;
62927;SDS011;51070;52.236;-0.892;2022-09-27T07:44:14;9.90;;;2.90;;
62927;SDS011;51070;52.236;-0.892;2022-09-27T07:46:40;11.70;;;3.20;;
62927;SDS011;51070;52.236;-0.892;2022-09-27T07:49:06;10.50;;;2.90;;
62927;SDS011;51070;52.236;-0.892;2022-09-27T07:51:32;11.00;;;3.80;;
62927;SDS011;51070;52.236;-0.892;2022-09-27T07:53:58;12.00;;;3.30;;
62927;SDS011;51070;52.236;-0.892;2022-09-27T07:56:25;12.50;;;4.10;;
62927;SDS011;51070;52.236;-0.892;2022-09-27T07:58:51;9.20;;;2.80;;
62927;SDS011;51070;52.236;-0.892;2022-09-27T08:01:17;9.50;;;2.40;;
62927;SDS011;51070;52.236;-0.892;2022-09-27T08:03:43;13.00;;;3.50;;
62927;SDS011;51070;52.236;-0.892;2022-09-27T08:06:08;15.40;;;4.40;;
62927;SDS011;51070;52.236;-0.892;2022-09-27T08:08:34;14.70;;;3.50;;
62927;SDS011;51070;52.236;-0.892;2022-09-27T08:11:01;11.50;;;2.90;;
62927;SDS011;51070;52.236;-0.892;2022-09-27T08:13:36;5.30;;;1.70;;
62927;SDS011;51070;52.236;-0.892;2022-09-27T08:16:04;6.40;;;2.30;;
62927;SDS011;51070;52.236;-0.892;2022-09-27T08:18:30;8.60;;;2.40;;
62927;SDS011;51070;52.236;-0.892;2022-09-27T08:20:58;3.80;;;2.00;;
62927;SDS011;51070;52.236;-0.892;2022-09-27T08:23:30;13.30;;;2.10;;
62927;SDS011;51070;52.236;-0.892;2022-09-27T08:25:56;6.20;;;1.30;;
62927;SDS011;51070;52.236;-0.892;2022-09-27T08:28:30;7.70;;;1.50;;
62927;SDS011;51070;52.236;-0.892;2022-09-27T08:30:58;8.80;;;1.80;;
62927;SDS011;51070;52.236;-0.892;2022-09-27T08:33:24;8.80;;;1.60;;
62927;SDS011;51070;52.236;-0.892;2022-09-27T08:35:51;6.30;;;1.60;;
62927;SDS011;51070;52.236;-0.892;2022-09-27T08:38:16;5.10;;;1.30;;
62927;SDS011;51070;52.236;-0.892;2022-09-27T08:43:14;7.10;;;1.90;;
62927;SDS011;51070;52.236;-0.892;2022-09-27T08:48:32;5.80;;;1.40;;
62927;SDS011;51070;52.236;-0.892;2022-09-27T08:51:01;4.40;;;1.40;;
62927;SDS011;51070;52.236;-0.892;2022-09-27T08:56:14;3.70;;;1.00;;
62927;SDS011;51070;52.236;-0.892;2022-09-27T08:58:57;6.30;;;1.30;;
62927;SDS011;51070;52.236;-0.892;2022-09-27T09:01:26;6.00;;;1.60;;
62927;SDS011;51070;52.236;-0.892;2022-09-27T09:03:53;4.20;;;1.10;;
62927;SDS011;51070;52.236;-0.892;2022-09-27T09:06:25;5.10;;;1.20;;
62927;SDS011;51070;52.236;-0.892;2022-09-27T09:29:38;9.00;;;1.80;;
62927;SDS011;51070;52.236;-0.892;2022-09-27T09:35:20;4.80;;;1.20;;
62927;SDS011;51070;52.236;-0.892;2022-09-27T09:37:52;4.80;;;1.30;;
62927;SDS011;51070;52.236;-0.892;2022-09-27T09:45:54;4.80;;;1.50;;
62927;SDS011;51070;52.236;-0.892;2022-09-27T09:51:07;9.10;;;2.10;;
62927;SDS011;51070;52.236;-0.892;2022-09-27T09:56:16;5.10;;;1.70;;
62927;SDS011;51070;52.236;-0.892;2022-09-27T09:58:50;7.00;;;1.60;;
62927;SDS011;51070;52.236;-0.892;2022-09-27T10:01:27;7.60;;;2.40;;
62927;SDS011;51070;52.236;-0.892;2022-09-27T10:03:59;4.70;;;1.60;;
62927;SDS011;51070;52.236;-0.892;2022-09-27T10:06:24;5.50;;;1.70;;
62927;SDS011;51070;52.236;-0.892;2022-09-27T10:08:52;9.80;;;2.30;;
62927;SDS011;51070;52.236;-0.892;2022-09-27T10:11:31;5.70;;;1.90;;
62927;SDS011;51070;52.236;-0.892;2022-09-27T10:14:04;3.70;;;1.30;;
62927;SDS011;51070;52.236;-0.892;2022-09-27T10:16:38;5.70;;;1.50;;
62927;SDS011;51070;52.236;-0.892;2022-09-27T10:19:07;5.20;;;1.90;;
62927;SDS011;51070;52.236;-0.892;2022-09-27T10:21:34;9.00;;;2.00;;
62927;SDS011;51070;52.236;-0.892;2022-09-27T10:24:06;7.40;;;1.70;;
62927;SDS011;51070;52.236;-0.892;2022-09-27T10:26:37;7.50;;;2.40;;
62927;SDS011;51070;52.236;-0.892;2022-09-27T10:31:59;2.80;;;1.30;;
62927;SDS011;51070;52.236;-0.892;2022-09-27T10:34:33;3.70;;;1.00;;
62927;SDS011;51070;52.236;-0.892;2022-09-27T10:39:36;2.80;;;0.80;;
62927;SDS011;51070;52.236;-0.892;2022-09-27T10:42:19;4.50;;;1.50;;
62927;SDS011;51070;52.236;-0.892;2022-09-27T10:44:46;4.30;;;2.10;;
62927;SDS011;51070;52.236;-0.892;2022-09-27T10:47:12;7.50;;;3.70;;
62927;SDS011;51070;52.236;-0.892;2022-09-27T10:49:46;5.20;;;2.60;;
62927;SDS011;51070;52.236;-0.892;2022-09-27T10:54:43;7.80;;;3.50;;
62927;SDS011;51070;52.236;-0.892;2022-09-27T10:57:25;4.60;;;2.60;;
62927;SDS011;51070;52.236;-0.892;2022-09-27T10:59:59;7.70;;;2.30;;
62927;SDS011;51070;52.236;-0.892;2022-09-27T11:02:34;3.60;;;1.90;;
62927;SDS011;51070;52.236;-0.892;2022-09-27T11:07:54;3.40;;;1.60;;
62927;SDS011;51070;52.236;-0.892;2022-09-27T11:10:33;8.10;;;1.50;;
62927;SDS011;51070;52.236;-0.892;2022-09-27T11:18:35;6.40;;;3.20;;
62927;SDS011;51070;52.236;-0.892;2022-09-27T11:32:06;6.60;;;2.00;;
62927;SDS011;51070;52.236;-0.892;2022-09-27T11:40:53;6.30;;;1.60;;
62927;SDS011;51070;52.236;-0.892;2022-09-27T11:46:33;4.60;;;1.50;;
62927;SDS011;51070;52.236;-0.892;2022-09-27T11:54:50;6.20;;;1.70;;
62927;SDS011;51070;52.236;-0.892;2022-09-27T12:01:11;5.20;;;1.40;;
62927;SDS011;51070;52.236;-0.892;2022-09-27T12:03:31;5.70;;;1.40;;
62927;SDS011;51070;52.236;-0.892;2022-09-27T12:06:24;6.60;;;1.30;;
62927;SDS011;51070;52.236;-0.892;2022-09-27T12:09:04;4.50;;;1.50;;
62927;SDS011;51070;52.236;-0.892;2022-09-27T12:12:45;3.90;;;1.60;;
62927;SDS011;51070;52.236;-0.892;2022-09-27T12:14:43;5.50;;;1.40;;
62927;SDS011;51070;52.236;-0.892;2022-09-27T12:17:21;5.90;;;1.50;;
62927;SDS011;51070;52.236;-0.892;2022-09-27T12:19:59;6.10;;;1.70;;
62927;SDS011;51070;52.236;-0.892;2022-09-27T12:22:34;6.40;;;2.30;;
62927;SDS011;51070;52.236;-0.892;2022-09-27T12:25:03;3.90;;;1.20;;
62927;SDS011;51070;52.236;-0.892;2022-09-27T12:30:15;6.90;;;2.70;;
62927;SDS011;51070;52.236;-0.892;2022-09-27T12:32:51;7.00;;;2.80;;
62927;SDS011;51070;52.236;-0.892;2022-09-27T12:35:30;9.00;;;2.20;;
62927;SDS011;51070;52.236;-0.892;2022-09-27T12:38:08;5.30;;;1.80;;
62927;SDS011;51070;52.236;-0.892;2022-09-27T12:40:41;5.00;;;1.30;;
62927;SDS011;51070;52.236;-0.892;2022-09-27T12:43:21;5.60;;;1.60;;
62927;SDS011;51070;52.236;-0.892;2022-09-27T12:49:14;2.20;;;1.20;;
62927;SDS011;51070;52.236;-0.892;2022-09-27T12:52:04;4.10;;;1.40;;
62927;SDS011;51070;52.236;-0.892;2022-09-27T12:54:46;3.60;;;1.10;;
62927;SDS011;51070;52.236;-0.892;2022-09-27T13:00:15;4.30;;;0.90;;
62927;SDS011;51070;52.236;-0.892;2022-09-27T13:02:52;4.60;;;1.70;;
62927;SDS011;51070;52.236;-0.892;2022-09-27T13:11:03;4.20;;;1.60;;
62927;SDS011;51070;52.236;-0.892;2022-09-27T13:13:41;4.50;;;2.20;;
62927;SDS011;51070;52.236;-0.892;2022-09-27T13:16:07;5.60;;;2.70;;
62927;SDS011;51070;52.236;-0.892;2022-09-27T13:21:03;6.40;;;2.50;;
62927;SDS011;51070;52.236;-0.892;2022-09-27T13:33:49;4.50;;;1.40;;
62927;SDS011;51070;52.236;-0.892;2022-09-27T13:36:18;6.50;;;1.90;;
62927;SDS011;51070;52.236;-0.892;2022-09-27T13:46:39;7.60;;;2.30;;
62927;SDS011;51070;52.236;-0.892;2022-09-27T13:51:56;9.50;;;2.60;;
62927;SDS011;51070;52.236;-0.892;2022-09-27T14:00:33;4.10;;;1.40;;
62927;SDS011;51070;52.236;-0.892;2022-09-27T14:03:12;6.30;;;1.50;;
62927;SDS011;51070;52.236;-0.892;2022-09-27T14:05:49;4.90;;;1.00;;
62927;SDS011;51070;52.236;-0.892;2022-09-27T14:10:56;3.90;;;1.20;;
62927;SDS011;51070;52.236;-0.892;2022-09-27T14:13:24;3.80;;;1.40;;
62927;SDS011;51070;52.236;-0.892;2022-09-27T14:15:51;4.00;;;1.20;;
62927;SDS011;51070;52.236;-0.892;2022-09-27T14:18:19;3.70;;;1.50;;
62927;SDS011;51070;52.236;-0.892;2022-09-27T14:20:47;7.60;;;1.60;;
62927;SDS011;51070;52.236;-0.892;2022-09-27T14:23:22;3.50;;;1.30;;
62927;SDS011;51070;52.236;-0.892;2022-09-27T14:25:50;6.70;;;1.50;;
62927;SDS011;51070;52.236;-0.892;2022-09-27T14:28:22;4.70;;;1.20;;
62927;SDS011;51070;52.236;-0.892;2022-09-27T14:31:06;2.70;;;1.00;;
62927;SDS011;51070;52.236;-0.892;2022-09-27T14:33:38;3.10;;;1.10;;
62927;SDS011;51070;52.236;-0.892;2022-09-27T14:36:05;3.90;;;0.90;;
62927;SDS011;51070;52.236;-0.892;2022-09-27T14:38:51;7.20;;;1.60;;
62927;SDS011;51070;52.236;-0.892;2022-09-27T14:41:17;3.80;;;1.10;;
62927;SDS011;51070;52.236;-0.892;2022-09-27T14:43:43;3.80;;;1.50;;
62927;SDS011;51070;52.236;-0.892;2022-09-27T14:46:23;1.90;;;1.10;;
62927;SDS011;51070;52.236;-0.892;2022-09-27T14:48:54;3.80;;;1.40;;
62927;SDS011;51070;52.236;-0.892;2022-09-27T14:51:25;2.70;;;1.20;;
62927;SDS011;51070;52.236;-0.892;2022-09-27T14:53:56;3.20;;;1.20;;
62927;SDS011;51070;52.236;-0.892;2022-09-27T14:56:29;5.70;;;1.30;;
62927;SDS011;51070;52.236;-0.892;2022-09-27T14:59:08;5.50;;;1.20;;
62927;SDS011;51070;52.236;-0.892;2022-09-27T15:01:37;3.00;;;1.10;;
62927;SDS011;51070;52.236;-0.892;2022-09-27T15:04:05;4.30;;;1.50;;
62927;SDS011;51070;52.236;-0.892;2022-09-27T15:06:34;3.10;;;1.50;;
62927;SDS011;51070;52.236;-0.892;2022-09-27T15:09:01;5.30;;;1.50;;
62927;SDS011;51070;52.236;-0.892;2022-09-27T15:11:28;2.40;;;1.20;;
62927;SDS011;51070;52.236;-0.892;2022-09-27T15:13:58;4.40;;;2.10;;
62927;SDS011;51070;52.236;-0.892;2022-09-27T15:16:27;3.10;;;1.10;;
62927;SDS011;51070;52.236;-0.892;2022-09-27T15:18:59;5.80;;;1.90;;
62927;SDS011;51070;52.236;-0.892;2022-09-27T15:21:32;6.20;;;1.70;;
62927;SDS011;51070;52.236;-0.892;2022-09-27T15:23:59;4.00;;;1.40;;
62927;SDS011;51070;52.236;-0.892;2022-09-27T15:29:24;3.60;;;1.30;;
62927;SDS011;51070;52.236;-0.892;2022-09-27T15:32:01;3.20;;;1.10;;
62927;SDS011;51070;52.236;-0.892;2022-09-27T15:34:29;7.80;;;2.20;;
62927;SDS011;51070;52.236;-0.892;2022-09-27T15:49:58;8.80;;;4.30;;
62927;SDS011;51070;52.236;-0.892;2022-09-27T15:52:43;9.00;;;4.90;;
62927;SDS011;51070;52.236;-0.892;2022-09-27T15:55:20;7.60;;;3.40;;
62927;SDS011;51070;52.236;-0.892;2022-09-27T15:57:53;7.70;;;3.20;;
62927;SDS011;51070;52.236;-0.892;2022-09-27T16:00:23;4.70;;;2.30;;
62927;SDS011;51070;52.236;-0.892;2022-09-27T16:02:50;5.90;;;1.70;;
62927;SDS011;51070;52.236;-0.892;2022-09-27T16:05:16;6.70;;;2.80;;
62927;SDS011;51070;52.236;-0.892;2022-09-27T16:07:42;5.20;;;2.90;;
62927;SDS011;51070;52.236;-0.892;2022-09-27T16:10:13;4.20;;;1.60;;
62927;SDS011;51070;52.236;-0.892;2022-09-27T16:12:55;4.70;;;1.70;;
62927;SDS011;51070;52.236;-0.892;2022-09-27T16:15:21;5.80;;;1.80;;
62927;SDS011;51070;52.236;-0.892;2022-09-27T16:17:46;4.60;;;2.30;;
62927;SDS011;51070;52.236;-0.892;2022-09-27T16:22:45;4.10;;;1.80;;
62927;SDS011;51070;52.236;-0.892;2022-09-27T16:25:11;3.00;;;1.40;;
62927;SDS011;51070;52.236;-0.892;2022-09-27T16:27:37;4.00;;;1.50;;
62927;SDS011;51070;52.236;-0.892;2022-09-27T16:30:03;4.10;;;1.30;;
62927;SDS011;51070;52.236;-0.892;2022-09-27T16:32:29;9.10;;;2.80;;
62927;SDS011;51070;52.236;-0.892;2022-09-27T16:34:55;3.40;;;1.60;;
62927;SDS011;51070;52.236;-0.892;2022-09-27T16:37:21;8.40;;;3.90;;
62927;SDS011;51070;52.236;-0.892;2022-09-27T16:39:47;5.30;;;2.90;;
62927;SDS011;51070;52.236;-0.892;2022-09-27T16:42:12;7.00;;;2.20;;
62927;SDS011;51070;52.236;-0.892;2022-09-27T16:44:39;4.90;;;1.70;;
62927;SDS011;51070;52.236;-0.892;2022-09-27T16:47:04;7.10;;;2.50;;
62927;SDS011;51070;52.236;-0.892;2022-09-27T16:49:31;3.30;;;1.50;;
62927;SDS011;51070;52.236;-0.892;2022-09-27T16:52:16;6.90;;;1.80;;
62927;SDS011;51070;52.236;-0.892;2022-09-27T16:54:42;3.20;;;1.40;;
62927;SDS011;51070;52.236;-0.892;2022-09-27T16:57:07;5.00;;;1.60;;
62927;SDS011;51070;52.236;-0.892;2022-09-27T16:59:33;10.30;;;1.60;;
62927;SDS011;51070;52.236;-0.892;2022-09-27T17:01:59;3.10;;;1.40;;
62927;SDS011;51070;52.236;-0.892;2022-09-27T17:04:25;5.20;;;2.10;;
62927;SDS011;51070;52.236;-0.892;2022-09-27T17:06:52;7.40;;;3.10;;
62927;SDS011;51070;52.236;-0.892;2022-09-27T17:09:19;12.40;;;4.60;;
62927;SDS011;51070;52.236;-0.892;2022-09-27T17:11:46;5.10;;;1.70;;
62927;SDS011;51070;52.236;-0.892;2022-09-27T17:14:12;3.40;;;1.50;;
62927;SDS011;51070;52.236;-0.892;2022-09-27T17:16:41;4.30;;;1.80;;
62927;SDS011;51070;52.236;-0.892;2022-09-27T17:19:08;5.80;;;1.80;;
62927;SDS011;51070;52.236;-0.892;2022-09-27T17:21:37;6.70;;;1.90;;
62927;SDS011;51070;52.236;-0.892;2022-09-27T17:24:02;2.90;;;1.50;;
62927;SDS011;51070;52.236;-0.892;2022-09-27T17:26:29;5.00;;;2.20;;
62927;SDS011;51070;52.236;-0.892;2022-09-27T17:28:55;6.00;;;3.90;;
62927;SDS011;51070;52.236;-0.892;2022-09-27T17:31:22;6.40;;;3.00;;
62927;SDS011;51070;52.236;-0.892;2022-09-27T17:33:49;9.00;;;4.50;;
62927;SDS011;51070;52.236;-0.892;2022-09-27T17:36:20;5.00;;;2.70;;
62927;SDS011;51070;52.236;-0.892;2022-09-27T17:38:47;8.50;;;2.40;;
62927;SDS011;51070;52.236;-0.892;2022-09-27T17:41:15;6.20;;;2.70;;
62927;SDS011;51070;52.236;-0.892;2022-09-27T17:46:14;9.60;;;2.60;;
62927;SDS011;51070;52.236;-0.892;2022-09-27T17:48:44;8.90;;;5.30;;
62927;SDS011;51070;52.236;-0.892;2022-09-27T17:51:30;7.90;;;4.80;;
62927;SDS011;51070;52.236;-0.892;2022-09-27T17:53:56;4.40;;;1.60;;
62927;SDS011;51070;52.236;-0.892;2022-09-27T17:56:22;2.40;;;1.40;;
62927;SDS011;51070;52.236;-0.892;2022-09-27T17:58:48;4.20;;;1.30;;
62927;SDS011;51070;52.236;-0.892;2022-09-27T18:01:15;5.20;;;1.80;;
62927;SDS011;51070;52.236;-0.892;2022-09-27T18:03:42;4.60;;;1.90;;
62927;SDS011;51070;52.236;-0.892;2022-09-27T18:06:09;2.70;;;1.70;;
62927;SDS011;51070;52.236;-0.892;2022-09-27T18:08:36;4.70;;;1.60;;
62927;SDS011;51070;52.236;-0.892;2022-09-27T18:11:02;4.60;;;1.90;;